Time;durP1;ratioP1;P1;durP2;ratioP2;P2;SDS_P1;SDS_P2;PMS_P1;PMS_P2;Temp;Humidity;BMP_temperature;BMP_pressure;BME280_temperature;BME280_humidity;BME280_pressure;Samples;Min_cycle;Max_cycle;Signal;HPM_P1;HPM_P2
2023/02/16 16:54:24;;;;;;;;;;;;;;;10.73;52.97;98938.16;5471412;23;19989;-64
2023/02/16 16:56:49;;;;;;;;;;;;;;;10.64;53.11;98945.63;4911228;29;19978;-64
2023/02/16 16:59:15;;;;;;;;;;;;;;;10.58;53.21;98930.25;4914568;29;19919;-63
2023/02/16 17:01:40;;;;;;;;;;;;;;;10.54;53.70;98928.72;4914894;29;20067;-63
2023/02/16 17:04:05;;;;;;;;;;;;;;;10.47;54.14;98924.78;4909828;29;20017;-64
2023/02/16 17:06:31;;;;;;;;;;;;;;;10.42;53.66;98921.53;4917335;29;20010;-64
2023/02/16 17:08:56;;;;;;;;;;;;;;;10.40;53.84;98931.28;4910450;29;20006;-64
2023/02/16 17:11:28;;;;;;;;;;;;;;;10.35;54.34;98925.44;4916657;29;20062;-64
2023/02/16 17:13:54;;;;;;;;;;;;;;;10.31;54.93;98919.53;4916915;29;19919;-64
2023/02/16 17:16:20;;;;;;;;;;;;;;;10.26;54.53;98926.81;4916092;29;19927;-64
2023/02/16 17:18:45;;;;;;;;;;;;;;;10.22;54.69;98926.13;4910886;29;19961;-64
2023/02/16 17:21:13;;;;;;;;;;;;;;;10.19;55.22;98925.44;4908708;29;19967;-64
2023/02/16 17:23:39;;;;;;;;;;;;;;;10.14;55.36;98933.53;4911767;29;19954;-64
2023/02/16 17:26:04;;;;;;;;;;;;;;;10.10;55.89;98936.44;4914464;29;20419;-64
2023/02/16 17:28:35;;;;;;;;;;;;;;;10.05;55.81;98941.94;4908533;29;19915;-64
2023/02/16 17:31:00;;;;;;;;;;;;;;;9.98;56.07;98935.34;4902321;29;19916;-64
2023/02/16 17:33:25;;;;;;;;;;;;;;;9.90;55.95;98932.25;4918538;29;19922;-63
2023/02/16 17:35:51;;;;;;;;;;;;;;;9.83;56.60;98938.75;4908780;29;20296;-64
2023/02/16 17:38:17;;;;;;;;;;;;;;;9.78;56.86;98938.19;4917761;29;20270;-65
2023/02/16 17:40:43;;;;;;;;;;;;;;;9.70;57.44;98936.81;4909804;29;19927;-64
2023/02/16 17:43:12;;;;;;;;;;;;;;;9.67;57.43;98936.09;4915690;29;20037;-64
2023/02/16 17:45:37;;;;;;;;;;;;;;;9.61;57.58;98931.22;4917200;29;19923;-64
2023/02/16 17:48:02;;;;;;;;;;;;;;;9.56;57.41;98941.91;4915404;29;19994;-64
2023/02/16 17:50:29;;;;;;;;;;;;;;;9.52;57.81;98946.47;4915847;29;19919;-64
2023/02/16 17:52:56;;;;;;;;;;;;;;;9.49;57.93;98945.78;4916775;29;19919;-64
2023/02/16 17:55:21;;;;;;;;;;;;;;;9.44;58.01;98946.03;4915319;29;20075;-64
2023/02/16 17:57:46;;;;;;;;;;;;;;;9.38;58.23;98946.34;4913787;29;19998;-64
2023/02/16 18:00:12;;;;;;;;;;;;;;;9.33;58.47;98947.53;4916065;29;19959;-64
2023/02/16 18:02:38;;;;;;;;;;;;;;;9.26;59.02;98941.78;4899334;29;20286;-64
2023/02/16 18:05:03;;;;;;;;;;;;;;;9.18;58.87;98936.91;4917269;29;20396;-65
2023/02/16 18:07:29;;;;;;;;;;;;;;;9.13;59.26;98938.91;4908431;29;20377;-64
2023/02/16 18:09:54;;;;;;;;;;;;;;;9.07;59.13;98928.75;4916932;29;19922;-64
2023/02/16 18:12:19;;;;;;;;;;;;;;;9.03;59.41;98935.09;4916282;29;19915;-64
2023/02/16 18:14:45;;;;;;;;;;;;;;;8.98;59.71;98926.59;4916983;29;20017;-64
2023/02/16 18:17:10;;;;;;;;;;;;;;;8.92;60.00;98927.78;4915176;29;19923;-64
2023/02/16 18:19:35;;;;;;;;;;;;;;;8.89;60.37;98921.84;4914861;29;19919;-64
2023/02/16 18:22:01;;;;;;;;;;;;;;;8.84;60.46;98923.84;4916770;29;19919;-64
2023/02/16 18:24:26;;;;;;;;;;;;;;;8.84;60.41;98923.84;4916517;29;19942;-64
2023/02/16 18:26:53;;;;;;;;;;;;;;;8.84;60.85;98918.59;4914857;29;19943;-64
2023/02/16 18:29:18;;;;;;;;;;;;;;;8.84;60.63;98922.06;4915174;29;20430;-64
2023/02/16 18:31:44;;;;;;;;;;;;;;;8.85;61.11;98931.63;4912976;29;19919;-64
2023/02/16 18:34:09;;;;;;;;;;;;;;;8.87;61.72;98931.53;4914630;29;19925;-64
2023/02/16 18:36:34;;;;;;;;;;;;;;;8.86;61.03;98935.09;4915216;29;19923;-64
2023/02/16 18:39:00;;;;;;;;;;;;;;;8.86;61.51;98935.09;4911968;29;20041;-64
2023/02/16 18:41:25;;;;;;;;;;;;;;;8.93;62.74;98946.94;4916285;29;20001;-63
2023/02/16 18:43:50;;;;;;;;;;;;;;;8.92;61.39;98934.78;4912557;29;20526;-63
2023/02/16 18:46:16;;;;;;;;;;;;;;;8.92;61.46;98937.41;4913165;29;19919;-65
2023/02/16 18:48:41;;;;;;;;;;;;;;;8.91;60.87;98940.91;4906505;29;19979;-63
2023/02/16 18:51:07;;;;;;;;;;;;;;;8.89;61.01;98934.94;4903204;29;20482;-63
2023/02/16 18:53:32;;;;;;;;;;;;;;;8.86;61.37;98942.94;4904816;29;20349;-63
2023/02/16 18:55:57;;;;;;;;;;;;;;;8.81;61.29;98935.31;4916185;29;19930;-64
2023/02/16 18:58:23;;;;;;;;;;;;;;;8.79;61.93;98932.75;4911852;29;19926;-64
2023/02/16 19:00:48;;;;;;;;;;;;;;;8.74;62.69;98929.53;4915676;29;19926;-64
2023/02/16 19:03:13;;;;;;;;;;;;;;;8.69;62.86;98941.16;4909369;29;19923;-64
2023/02/16 19:05:38;;;;;;;;;;;;;;;8.66;62.55;98942.13;4912630;29;19915;-63
2023/02/16 19:08:04;;;;;;;;;;;;;;;8.60;62.60;98950.28;4915434;29;19954;-63
2023/02/16 19:10:29;;;;;;;;;;;;;;;8.56;62.88;98940.88;4913557;29;19958;-63
2023/02/16 19:12:54;;;;;;;;;;;;;;;8.54;63.52;98950.59;4915278;29;19958;-64
2023/02/16 19:15:19;;;;;;;;;;;;;;;8.53;63.09;98941.03;4908134;29;19935;-63
2023/02/16 19:17:44;;;;;;;;;;;;;;;8.54;63.09;98938.38;4915546;29;19923;-63
2023/02/16 19:20:13;;;;;;;;;;;;;;;8.53;63.41;98941.91;4910653;29;19919;-64
2023/02/16 19:22:38;;;;;;;;;;;;;;;8.50;63.24;98934.22;4916085;29;19919;-63
2023/02/16 19:25:04;;;;;;;;;;;;;;;8.50;63.66;98930.75;4913907;29;19995;-63
2023/02/16 19:27:29;;;;;;;;;;;;;;;8.49;63.20;98936.88;4908013;29;19919;-64
2023/02/16 19:29:55;;;;;;;;;;;;;;;8.49;63.62;98936.88;4912795;29;19919;-64
2023/02/16 19:32:20;;;;;;;;;;;;;;;8.48;63.79;98935.19;4917256;29;19986;-64
2023/02/16 19:34:45;;;;;;;;;;;;;;;8.42;64.40;98943.31;4915984;29;19919;-64
2023/02/16 19:37:10;;;;;;;;;;;;;;;8.43;64.08;98937.16;4912393;29;19982;-64
2023/02/16 19:39:35;;;;;;;;;;;;;;;8.43;64.13;98942.41;4913887;29;19940;-64
2023/02/16 19:42:01;;;;;;;;;;;;;;;8.42;63.79;98938.09;4911221;29;19919;-64
2023/02/16 19:44:26;;;;;;;;;;;;;;;8.40;64.62;98945.19;4909239;29;19982;-64
2023/02/16 19:46:51;;;;;;;;;;;;;;;8.40;64.33;98939.97;4909129;29;19974;-64
2023/02/16 19:49:16;;;;;;;;;;;;;;;8.40;64.65;98945.19;4912341;29;19923;-64
2023/02/16 19:51:42;;;;;;;;;;;;;;;8.39;64.06;98939.09;4917264;29;19943;-64
2023/02/16 19:54:07;;;;;;;;;;;;;;;8.41;65.18;98941.66;4913629;29;20535;-64
2023/02/16 19:56:35;;;;;;;;;;;;;;;8.40;64.75;98945.19;4915162;29;20021;-64
2023/02/16 19:59:00;;;;;;;;;;;;;;;8.38;64.59;98947.00;4898442;29;19927;-64
2023/02/16 20:01:27;;;;;;;;;;;;;;;8.37;64.31;98940.06;4916468;29;20406;-64
2023/02/16 20:03:52;;;;;;;;;;;;;;;8.35;64.83;98934.06;4917217;29;20018;-64
2023/02/16 20:06:25;;;;;;;;;;;;;;;8.36;64.58;98939.19;4917169;29;19963;-64
2023/02/16 20:08:50;;;;;;;;;;;;;;;8.32;65.00;98938.50;4915215;29;19966;-65
2023/02/16 20:11:16;;;;;;;;;;;;;;;8.31;64.59;98944.66;4914055;29;19962;-64
2023/02/16 20:13:41;;;;;;;;;;;;;;;8.28;65.16;98942.19;4917007;29;20400;-64
2023/02/16 20:16:07;;;;;;;;;;;;;;;8.27;64.43;98944.88;4917848;29;19951;-63
2023/02/16 20:18:32;;;;;;;;;;;;;;;8.23;65.09;98938.94;4919156;29;19915;-64
2023/02/16 20:20:58;;;;;;;;;;;;;;;8.22;65.32;98937.25;4912965;29;19975;-64
2023/02/16 20:23:23;;;;;;;;;;;;;;;8.23;65.19;98938.94;4919176;29;19947;-63
2023/02/16 20:25:49;;;;;;;;;;;;;;;8.21;65.26;98935.56;4909501;29;19927;-63
2023/02/16 20:28:14;;;;;;;;;;;;;;;8.20;65.80;98940.88;4902260;29;19926;-64
2023/02/16 20:30:40;;;;;;;;;;;;;;;8.17;65.51;98928.78;4914926;29;20354;-64
2023/02/16 20:33:05;;;;;;;;;;;;;;;8.17;65.85;98934.00;4909867;29;19935;-64
2023/02/16 20:35:30;;;;;;;;;;;;;;;8.16;66.08;98936.72;4916035;29;19926;-64
2023/02/16 20:37:56;;;;;;;;;;;;;;;8.14;66.15;98933.31;4905586;29;19923;-64
2023/02/16 20:40:21;;;;;;;;;;;;;;;8.09;66.52;98934.38;4905245;29;19919;-64
2023/02/16 20:42:46;;;;;;;;;;;;;;;8.11;66.08;98934.28;4916760;29;19926;-63
2023/02/16 20:45:12;;;;;;;;;;;;;;;8.12;66.60;98922.06;4913938;29;20353;-64
2023/02/16 20:47:39;;;;;;;;;;;;;;;8.13;66.67;98922.03;4902774;29;20345;-64
2023/02/16 20:50:04;;;;;;;;;;;;;;;8.13;67.20;98916.78;4917402;29;19927;-64
2023/02/16 20:52:29;;;;;;;;;;;;;;;8.11;66.73;98918.63;4916609;29;19919;-64
2023/02/16 20:54:55;;;;;;;;;;;;;;;8.11;67.37;98915.16;4913706;29;19950;-64
2023/02/16 20:57:20;;;;;;;;;;;;;;;8.08;67.14;98910.91;4913760;29;19983;-64
2023/02/16 20:59:45;;;;;;;;;;;;;;;8.04;67.29;98904.16;4918066;29;19919;-64
2023/02/16 21:02:10;;;;;;;;;;;;;;;8.03;66.64;98910.31;4918326;29;19926;-64
2023/02/16 21:04:35;;;;;;;;;;;;;;;8.01;67.34;98910.34;4912023;29;19927;-65
2023/02/16 21:07:01;;;;;;;;;;;;;;;8.02;67.59;98904.25;4915866;29;19919;-64
2023/02/16 21:09:26;;;;;;;;;;;;;;;8.02;67.22;98906.00;4913315;29;19946;-64
2023/02/16 21:11:51;;;;;;;;;;;;;;;8.03;67.68;98899.84;4918357;29;19915;-64
2023/02/16 21:14:16;;;;;;;;;;;;;;;8.03;66.71;98905.91;4916463;29;19955;-64
2023/02/16 21:16:42;;;;;;;;;;;;;;;8.04;67.67;98905.00;4915594;29;19990;-64
2023/02/16 21:19:07;;;;;;;;;;;;;;;8.07;66.99;98909.22;4917214;29;19919;-63
2023/02/16 21:21:32;;;;;;;;;;;;;;;8.07;67.34;98906.63;4916954;29;20005;-65
2023/02/16 21:23:57;;;;;;;;;;;;;;;8.07;66.95;98906.63;4915483;29;20024;-64
2023/02/16 21:26:23;;;;;;;;;;;;;;;8.09;67.59;98910.03;4914157;29;19970;-64
2023/02/16 21:28:48;;;;;;;;;;;;;;;8.08;66.92;98910.91;4914643;29;19919;-64
2023/02/16 21:31:15;;;;;;;;;;;;;;;8.08;66.99;98908.31;4915300;29;19946;-64
2023/02/16 21:33:40;;;;;;;;;;;;;;;8.09;66.65;98905.63;4915953;29;19966;-64
2023/02/16 21:36:09;;;;;;;;;;;;;;;8.09;66.66;98905.63;4917518;29;20025;-65
2023/02/16 21:38:34;;;;;;;;;;;;;;;8.10;66.99;98911.72;4910671;29;19923;-64
2023/02/16 21:43:44;;;;;;;;;;;;;;;8.11;66.91;98908.16;4916230;29;20349;-64
2023/02/16 21:46:11;;;;;;;;;;;;;;;8.12;65.80;98903.78;4914870;29;20002;-64
2023/02/16 21:48:46;;;;;;;;;;;;;;;8.11;66.45;98895.09;4914768;29;19949;-64
2023/02/16 21:51:12;;;;;;;;;;;;;;;8.12;66.13;98894.19;4915967;29;19974;-65
2023/02/16 21:53:37;;;;;;;;;;;;;;;8.11;66.30;98892.50;4908709;29;20341;-64
2023/02/16 21:56:18;;;;;;;;;;;;;;;8.11;65.76;98892.50;4915848;29;19923;-64
2023/02/16 21:58:44;;;;;;;;;;;;;;;8.07;66.92;98888.34;4914455;29;19919;-64
2023/02/16 22:01:09;;;;;;;;;;;;;;;8.03;67.25;98884.19;4913296;29;19923;-65
2023/02/16 22:03:34;;;;;;;;;;;;;;;8.01;67.08;98880.78;4921562;29;19919;-64
2023/02/16 22:06:03;;;;;;;;;;;;;;;7.98;67.31;98879.19;4913525;29;19919;-64
2023/02/16 22:08:29;;;;;;;;;;;;;;;7.93;67.12;98875.09;4913783;29;19919;-65
2023/02/16 22:10:54;;;;;;;;;;;;;;;7.87;67.54;98877.97;4911621;29;19945;-65
2023/02/16 22:13:20;;;;;;;;;;;;;;;7.81;67.74;98872.13;4914653;29;20436;-64
2023/02/16 22:15:45;;;;;;;;;;;;;;;7.80;67.82;98873.03;4917171;29;20360;-64
2023/02/16 22:18:10;;;;;;;;;;;;;;;7.76;68.02;98863.66;4916908;29;19919;-64
2023/02/16 22:20:35;;;;;;;;;;;;;;;7.72;67.53;98862.09;4911072;29;19934;-65
2023/02/16 22:23:01;;;;;;;;;;;;;;;7.71;67.83;98867.38;4911933;29;19926;-64
2023/02/16 22:25:26;;;;;;;;;;;;;;;7.66;67.63;98871.97;4914325;29;19916;-64
2023/02/16 22:27:51;;;;;;;;;;;;;;;7.64;67.90;98861.63;4915694;29;19955;-64
2023/02/16 22:30:16;;;;;;;;;;;;;;;7.61;67.71;98864.38;4911751;29;19923;-64
2023/02/16 22:32:42;;;;;;;;;;;;;;;7.58;68.30;98867.13;4913760;29;20085;-64
2023/02/16 22:35:07;;;;;;;;;;;;;;;7.57;68.39;98866.28;4921878;29;19926;-64
2023/02/16 22:37:32;;;;;;;;;;;;;;;7.56;67.83;98867.19;4907730;29;19928;-64
2023/02/16 22:39:57;;;;;;;;;;;;;;;7.55;68.30;98867.25;4899183;29;19919;-64
2023/02/16 22:42:22;;;;;;;;;;;;;;;7.53;68.43;98864.69;4913836;29;19926;-64
2023/02/16 22:44:48;;;;;;;;;;;;;;;7.54;67.95;98873.41;4915204;29;19919;-64
2023/02/16 22:47:13;;;;;;;;;;;;;;;7.53;67.93;98874.31;4915007;29;19926;-64
2023/02/16 22:49:38;;;;;;;;;;;;;;;7.50;67.69;98864.00;4914635;29;19919;-64
2023/02/16 22:52:03;;;;;;;;;;;;;;;7.49;68.08;98867.53;4910804;29;20005;-65
2023/02/16 22:54:29;;;;;;;;;;;;;;;7.47;67.99;98872.00;4913561;29;20018;-64
2023/02/16 22:56:54;;;;;;;;;;;;;;;7.44;67.70;98866.91;4918379;29;19974;-64
2023/02/16 22:59:19;;;;;;;;;;;;;;;7.40;67.61;98866.19;4907248;29;19961;-64
2023/02/16 23:01:44;;;;;;;;;;;;;;;7.35;68.30;98865.53;4905514;29;19926;-66
2023/02/16 23:04:11;;;;;;;;;;;;;;;7.30;67.92;98863.16;4914077;29;20399;-65
2023/02/16 23:06:36;;;;;;;;;;;;;;;7.24;67.72;98860.81;4912189;29;19919;-65
2023/02/16 23:09:05;;;;;;;;;;;;;;;7.18;68.28;98868.91;4913648;29;19926;-64
2023/02/16 23:11:30;;;;;;;;;;;;;;;7.14;68.01;98867.34;4912605;29;19926;-65
2023/02/16 23:13:55;;;;;;;;;;;;;;;7.07;68.51;98856.34;4911555;29;20010;-64
2023/02/16 23:16:22;;;;;;;;;;;;;;;7.02;68.68;98860.03;4911135;29;20026;-64
2023/02/16 23:18:47;;;;;;;;;;;;;;;6.96;68.89;98855.13;4913960;29;20344;-64
2023/02/16 23:21:19;;;;;;;;;;;;;;;6.90;68.72;98864.91;4911606;29;19967;-64
2023/02/16 23:23:44;;;;;;;;;;;;;;;6.85;68.82;98864.25;4911846;29;19923;-64
2023/02/16 23:26:09;;;;;;;;;;;;;;;6.82;68.53;98863.53;4911415;29;19942;-64
2023/02/16 23:28:35;;;;;;;;;;;;;;;6.79;68.87;98866.28;4912630;29;19966;-64
2023/02/16 23:31:00;;;;;;;;;;;;;;;6.75;68.79;98870.78;4908125;29;19919;-64
2023/02/16 23:33:26;;;;;;;;;;;;;;;6.70;68.92;98870.09;4913799;29;20345;-64
2023/02/16 23:35:51;;;;;;;;;;;;;;;6.65;69.46;98864.25;4913146;29;19919;-65
2023/02/16 23:38:16;;;;;;;;;;;;;;;6.62;69.13;98864.38;4915365;29;19926;-64
2023/02/16 23:40:41;;;;;;;;;;;;;;;6.61;69.40;98865.31;4913802;29;19916;-64
2023/02/16 23:43:07;;;;;;;;;;;;;;;6.54;69.46;98864.72;4908366;29;20346;-64
2023/02/16 23:45:32;;;;;;;;;;;;;;;6.51;69.21;98864.84;4911508;29;19965;-65
2023/02/16 23:47:57;;;;;;;;;;;;;;;6.46;69.40;98864.16;4912165;29;19923;-64
2023/02/16 23:50:22;;;;;;;;;;;;;;;6.37;69.31;98857.59;4913240;29;19979;-64
2023/02/16 23:52:48;;;;;;;;;;;;;;;6.31;68.88;98859.59;4911820;29;20009;-63
2023/02/16 23:55:13;;;;;;;;;;;;;;;6.25;69.40;98855.47;4852975;29;1776231;-64
2023/02/16 23:57:39;;;;;;;;;;;;;;;6.23;69.78;98854.69;4911905;29;19927;-64
